sensor_id;sensor_type;location;lat;lon;timestamp;P1;durP1;ratioP1;P2;durP2;ratioP2
12816;SDS011;6473;51.552;6.716;2023-07-31T00:01:56;4.47;;;2.45;;
12816;SDS011;6473;51.552;6.716;2023-07-31T00:04:23;5.03;;;2.92;;
12816;SDS011;6473;51.552;6.716;2023-07-31T00:06:50;5.68;;;3.40;;
12816;SDS011;6473;51.552;6.716;2023-07-31T00:09:17;6.18;;;4.18;;
12816;SDS011;6473;51.552;6.716;2023-07-31T00:11:46;10.15;;;5.15;;
12816;SDS011;6473;51.552;6.716;2023-07-31T00:14:12;8.80;;;5.18;;
12816;SDS011;6473;51.552;6.716;2023-07-31T00:16:39;11.23;;;5.65;;
12816;SDS011;6473;51.552;6.716;2023-07-31T00:19:06;13.15;;;5.68;;
12816;SDS011;6473;51.552;6.716;2023-07-31T00:21:33;10.43;;;5.18;;
12816;SDS011;6473;51.552;6.716;2023-07-31T00:24:00;11.70;;;5.95;;
12816;SDS011;6473;51.552;6.716;2023-07-31T00:26:27;12.80;;;5.88;;
12816;SDS011;6473;51.552;6.716;2023-07-31T00:28:55;16.17;;;6.38;;
12816;SDS011;6473;51.552;6.716;2023-07-31T00:31:22;11.00;;;6.03;;
12816;SDS011;6473;51.552;6.716;2023-07-31T00:33:49;13.35;;;6.63;;
12816;SDS011;6473;51.552;6.716;2023-07-31T00:36:16;15.18;;;6.53;;
12816;SDS011;6473;51.552;6.716;2023-07-31T00:38:44;12.32;;;6.60;;
12816;SDS011;6473;51.552;6.716;2023-07-31T00:41:11;13.40;;;7.00;;
12816;SDS011;6473;51.552;6.716;2023-07-31T00:43:38;16.52;;;6.45;;
12816;SDS011;6473;51.552;6.716;2023-07-31T00:46:07;16.10;;;6.53;;
12816;SDS011;6473;51.552;6.716;2023-07-31T00:48:35;16.85;;;7.18;;
12816;SDS011;6473;51.552;6.716;2023-07-31T00:51:03;14.73;;;7.35;;
12816;SDS011;6473;51.552;6.716;2023-07-31T00:53:30;14.30;;;6.72;;
12816;SDS011;6473;51.552;6.716;2023-07-31T00:55:57;18.30;;;7.55;;
12816;SDS011;6473;51.552;6.716;2023-07-31T00:58:25;16.33;;;6.88;;
12816;SDS011;6473;51.552;6.716;2023-07-31T01:00:51;14.98;;;6.05;;
12816;SDS011;6473;51.552;6.716;2023-07-31T01:03:20;10.77;;;5.82;;
12816;SDS011;6473;51.552;6.716;2023-07-31T01:05:49;12.98;;;5.90;;
12816;SDS011;6473;51.552;6.716;2023-07-31T01:08:27;12.63;;;5.78;;
12816;SDS011;6473;51.552;6.716;2023-07-31T01:11:00;9.65;;;5.95;;
12816;SDS011;6473;51.552;6.716;2023-07-31T01:13:34;12.95;;;6.13;;
12816;SDS011;6473;51.552;6.716;2023-07-31T01:16:01;10.45;;;5.40;;
12816;SDS011;6473;51.552;6.716;2023-07-31T01:18:29;11.50;;;5.47;;
12816;SDS011;6473;51.552;6.716;2023-07-31T01:20:58;10.68;;;5.15;;
12816;SDS011;6473;51.552;6.716;2023-07-31T01:23:38;12.30;;;5.07;;
12816;SDS011;6473;51.552;6.716;2023-07-31T01:26:23;12.57;;;5.18;;
12816;SDS011;6473;51.552;6.716;2023-07-31T01:28:54;11.45;;;5.10;;
12816;SDS011;6473;51.552;6.716;2023-07-31T01:31:26;12.15;;;5.22;;
12816;SDS011;6473;51.552;6.716;2023-07-31T01:33:58;9.90;;;4.93;;
12816;SDS011;6473;51.552;6.716;2023-07-31T01:36:27;11.07;;;4.90;;
12816;SDS011;6473;51.552;6.716;2023-07-31T01:38:57;9.80;;;4.95;;
12816;SDS011;6473;51.552;6.716;2023-07-31T01:41:27;9.30;;;4.55;;
12816;SDS011;6473;51.552;6.716;2023-07-31T01:43:54;6.18;;;3.88;;
12816;SDS011;6473;51.552;6.716;2023-07-31T01:46:22;12.85;;;5.20;;
12816;SDS011;6473;51.552;6.716;2023-07-31T01:48:50;10.10;;;4.63;;
12816;SDS011;6473;51.552;6.716;2023-07-31T01:51:18;9.65;;;4.18;;
12816;SDS011;6473;51.552;6.716;2023-07-31T01:53:45;11.43;;;4.32;;
12816;SDS011;6473;51.552;6.716;2023-07-31T01:56:12;9.80;;;4.20;;
12816;SDS011;6473;51.552;6.716;2023-07-31T01:58:40;8.00;;;4.07;;
12816;SDS011;6473;51.552;6.716;2023-07-31T02:01:07;9.45;;;4.50;;
12816;SDS011;6473;51.552;6.716;2023-07-31T02:03:33;11.27;;;4.03;;
12816;SDS011;6473;51.552;6.716;2023-07-31T02:06:00;9.05;;;4.05;;
12816;SDS011;6473;51.552;6.716;2023-07-31T02:08:27;10.40;;;4.10;;
12816;SDS011;6473;51.552;6.716;2023-07-31T02:10:54;9.70;;;4.53;;
12816;SDS011;6473;51.552;6.716;2023-07-31T02:13:22;9.25;;;4.25;;
12816;SDS011;6473;51.552;6.716;2023-07-31T02:15:50;10.02;;;4.38;;
12816;SDS011;6473;51.552;6.716;2023-07-31T02:18:17;8.05;;;4.57;;
12816;SDS011;6473;51.552;6.716;2023-07-31T02:20:48;10.07;;;4.45;;
12816;SDS011;6473;51.552;6.716;2023-07-31T02:23:16;10.85;;;4.30;;
12816;SDS011;6473;51.552;6.716;2023-07-31T02:25:43;8.52;;;4.03;;
12816;SDS011;6473;51.552;6.716;2023-07-31T02:28:10;9.20;;;4.45;;
12816;SDS011;6473;51.552;6.716;2023-07-31T02:30:36;10.10;;;4.13;;
12816;SDS011;6473;51.552;6.716;2023-07-31T02:33:05;8.35;;;3.92;;
12816;SDS011;6473;51.552;6.716;2023-07-31T02:35:32;6.57;;;4.00;;
12816;SDS011;6473;51.552;6.716;2023-07-31T02:37:59;8.40;;;4.63;;
12816;SDS011;6473;51.552;6.716;2023-07-31T02:40:26;11.30;;;4.45;;
12816;SDS011;6473;51.552;6.716;2023-07-31T02:42:53;11.93;;;4.22;;
12816;SDS011;6473;51.552;6.716;2023-07-31T02:45:20;7.72;;;4.15;;
12816;SDS011;6473;51.552;6.716;2023-07-31T02:47:46;12.73;;;4.07;;
12816;SDS011;6473;51.552;6.716;2023-07-31T02:50:15;9.65;;;4.10;;
12816;SDS011;6473;51.552;6.716;2023-07-31T02:52:42;12.68;;;4.55;;
12816;SDS011;6473;51.552;6.716;2023-07-31T02:55:09;7.80;;;3.97;;
12816;SDS011;6473;51.552;6.716;2023-07-31T02:57:37;10.88;;;4.63;;
12816;SDS011;6473;51.552;6.716;2023-07-31T03:00:04;8.05;;;4.25;;
12816;SDS011;6473;51.552;6.716;2023-07-31T03:02:32;5.75;;;3.35;;
12816;SDS011;6473;51.552;6.716;2023-07-31T03:04:59;10.07;;;4.53;;
12816;SDS011;6473;51.552;6.716;2023-07-31T03:07:27;6.75;;;3.90;;
12816;SDS011;6473;51.552;6.716;2023-07-31T03:09:55;7.88;;;3.97;;
12816;SDS011;6473;51.552;6.716;2023-07-31T03:12:23;10.27;;;3.90;;
12816;SDS011;6473;51.552;6.716;2023-07-31T03:14:50;7.13;;;3.42;;
12816;SDS011;6473;51.552;6.716;2023-07-31T03:17:17;7.32;;;3.90;;
12816;SDS011;6473;51.552;6.716;2023-07-31T03:19:43;10.38;;;4.57;;
12816;SDS011;6473;51.552;6.716;2023-07-31T03:22:10;10.93;;;4.68;;
12816;SDS011;6473;51.552;6.716;2023-07-31T03:24:38;11.15;;;4.28;;
12816;SDS011;6473;51.552;6.716;2023-07-31T03:27:05;10.63;;;4.20;;
12816;SDS011;6473;51.552;6.716;2023-07-31T03:29:32;8.65;;;3.63;;
12816;SDS011;6473;51.552;6.716;2023-07-31T03:32:01;7.75;;;4.55;;
12816;SDS011;6473;51.552;6.716;2023-07-31T03:34:28;8.65;;;4.28;;
12816;SDS011;6473;51.552;6.716;2023-07-31T03:36:57;11.05;;;4.60;;
12816;SDS011;6473;51.552;6.716;2023-07-31T03:39:24;10.63;;;3.95;;
12816;SDS011;6473;51.552;6.716;2023-07-31T03:41:52;9.63;;;4.60;;
12816;SDS011;6473;51.552;6.716;2023-07-31T03:44:19;6.78;;;4.90;;
12816;SDS011;6473;51.552;6.716;2023-07-31T03:46:46;11.25;;;4.72;;
12816;SDS011;6473;51.552;6.716;2023-07-31T03:49:13;9.80;;;4.25;;
12816;SDS011;6473;51.552;6.716;2023-07-31T03:51:40;8.38;;;4.10;;
12816;SDS011;6473;51.552;6.716;2023-07-31T03:54:07;7.70;;;4.18;;
12816;SDS011;6473;51.552;6.716;2023-07-31T03:56:34;8.55;;;4.20;;
12816;SDS011;6473;51.552;6.716;2023-07-31T03:59:04;10.32;;;4.13;;
12816;SDS011;6473;51.552;6.716;2023-07-31T04:01:31;10.32;;;4.05;;
12816;SDS011;6473;51.552;6.716;2023-07-31T04:03:58;7.82;;;3.88;;
12816;SDS011;6473;51.552;6.716;2023-07-31T04:06:25;11.18;;;4.15;;
12816;SDS011;6473;51.552;6.716;2023-07-31T04:08:52;6.45;;;4.00;;
12816;SDS011;6473;51.552;6.716;2023-07-31T04:11:19;8.02;;;4.65;;
12816;SDS011;6473;51.552;6.716;2023-07-31T04:13:45;6.15;;;4.60;;
12816;SDS011;6473;51.552;6.716;2023-07-31T04:16:14;9.15;;;4.78;;
12816;SDS011;6473;51.552;6.716;2023-07-31T04:18:40;7.25;;;3.95;;
12816;SDS011;6473;51.552;6.716;2023-07-31T04:21:07;9.10;;;3.85;;
12816;SDS011;6473;51.552;6.716;2023-07-31T04:23:35;6.93;;;4.07;;
12816;SDS011;6473;51.552;6.716;2023-07-31T04:26:02;8.45;;;3.83;;
12816;SDS011;6473;51.552;6.716;2023-07-31T04:28:28;10.45;;;4.30;;
12816;SDS011;6473;51.552;6.716;2023-07-31T04:30:56;10.65;;;4.38;;
12816;SDS011;6473;51.552;6.716;2023-07-31T04:33:25;6.57;;;4.22;;
12816;SDS011;6473;51.552;6.716;2023-07-31T04:35:52;6.70;;;4.07;;
12816;SDS011;6473;51.552;6.716;2023-07-31T04:38:19;9.43;;;4.30;;
12816;SDS011;6473;51.552;6.716;2023-07-31T04:40:46;8.23;;;4.30;;
12816;SDS011;6473;51.552;6.716;2023-07-31T04:43:14;9.07;;;4.53;;
12816;SDS011;6473;51.552;6.716;2023-07-31T04:45:42;11.05;;;4.40;;
12816;SDS011;6473;51.552;6.716;2023-07-31T04:48:11;7.80;;;4.40;;
12816;SDS011;6473;51.552;6.716;2023-07-31T04:50:40;7.72;;;4.90;;
12816;SDS011;6473;51.552;6.716;2023-07-31T04:53:07;11.52;;;4.70;;
12816;SDS011;6473;51.552;6.716;2023-07-31T04:55:34;11.20;;;4.78;;
12816;SDS011;6473;51.552;6.716;2023-07-31T04:58:01;8.80;;;4.82;;
12816;SDS011;6473;51.552;6.716;2023-07-31T05:00:28;9.48;;;5.05;;
12816;SDS011;6473;51.552;6.716;2023-07-31T05:02:54;10.75;;;4.50;;
12816;SDS011;6473;51.552;6.716;2023-07-31T05:05:21;11.57;;;4.60;;
12816;SDS011;6473;51.552;6.716;2023-07-31T05:07:50;9.55;;;4.55;;
12816;SDS011;6473;51.552;6.716;2023-07-31T05:10:17;9.07;;;4.40;;
12816;SDS011;6473;51.552;6.716;2023-07-31T05:12:43;10.93;;;4.45;;
12816;SDS011;6473;51.552;6.716;2023-07-31T05:15:10;10.10;;;5.00;;
12816;SDS011;6473;51.552;6.716;2023-07-31T05:17:37;8.82;;;4.35;;
12816;SDS011;6473;51.552;6.716;2023-07-31T05:20:05;6.22;;;4.10;;
12816;SDS011;6473;51.552;6.716;2023-07-31T05:22:32;12.18;;;4.85;;
12816;SDS011;6473;51.552;6.716;2023-07-31T05:25:01;9.10;;;4.88;;
12816;SDS011;6473;51.552;6.716;2023-07-31T05:27:27;6.45;;;4.95;;
12816;SDS011;6473;51.552;6.716;2023-07-31T05:29:54;7.95;;;4.63;;
12816;SDS011;6473;51.552;6.716;2023-07-31T05:32:21;8.02;;;4.40;;
12816;SDS011;6473;51.552;6.716;2023-07-31T05:34:50;5.63;;;3.97;;
12816;SDS011;6473;51.552;6.716;2023-07-31T05:37:17;7.38;;;4.25;;
12816;SDS011;6473;51.552;6.716;2023-07-31T05:39:44;10.25;;;4.72;;
12816;SDS011;6473;51.552;6.716;2023-07-31T05:42:12;9.10;;;4.85;;
12816;SDS011;6473;51.552;6.716;2023-07-31T05:44:39;9.90;;;4.70;;
12816;SDS011;6473;51.552;6.716;2023-07-31T05:47:06;8.32;;;4.53;;
12816;SDS011;6473;51.552;6.716;2023-07-31T05:49:33;8.02;;;4.68;;
12816;SDS011;6473;51.552;6.716;2023-07-31T05:52:00;9.38;;;4.38;;
12816;SDS011;6473;51.552;6.716;2023-07-31T05:54:27;9.57;;;4.70;;
12816;SDS011;6473;51.552;6.716;2023-07-31T05:56:54;6.38;;;4.30;;
12816;SDS011;6473;51.552;6.716;2023-07-31T05:59:22;8.98;;;4.32;;
12816;SDS011;6473;51.552;6.716;2023-07-31T06:01:49;7.97;;;4.45;;
12816;SDS011;6473;51.552;6.716;2023-07-31T06:04:16;9.55;;;4.60;;
12816;SDS011;6473;51.552;6.716;2023-07-31T06:06:42;8.57;;;4.78;;
12816;SDS011;6473;51.552;6.716;2023-07-31T06:09:09;9.45;;;4.38;;
12816;SDS011;6473;51.552;6.716;2023-07-31T06:11:37;9.00;;;5.10;;
12816;SDS011;6473;51.552;6.716;2023-07-31T06:14:04;9.95;;;5.00;;
12816;SDS011;6473;51.552;6.716;2023-07-31T06:16:32;6.63;;;4.82;;
12816;SDS011;6473;51.552;6.716;2023-07-31T06:18:58;8.38;;;5.25;;
12816;SDS011;6473;51.552;6.716;2023-07-31T06:21:25;11.35;;;5.93;;
12816;SDS011;6473;51.552;6.716;2023-07-31T06:23:52;10.85;;;5.95;;
12816;SDS011;6473;51.552;6.716;2023-07-31T06:26:19;7.75;;;5.85;;
12816;SDS011;6473;51.552;6.716;2023-07-31T06:28:46;10.07;;;6.00;;
12816;SDS011;6473;51.552;6.716;2023-07-31T06:31:13;8.30;;;5.82;;
12816;SDS011;6473;51.552;6.716;2023-07-31T06:33:41;8.20;;;5.40;;
12816;SDS011;6473;51.552;6.716;2023-07-31T06:36:08;10.02;;;6.28;;
12816;SDS011;6473;51.552;6.716;2023-07-31T06:38:35;10.02;;;5.82;;
12816;SDS011;6473;51.552;6.716;2023-07-31T06:41:02;10.77;;;5.60;;
12816;SDS011;6473;51.552;6.716;2023-07-31T06:43:30;11.30;;;5.70;;
12816;SDS011;6473;51.552;6.716;2023-07-31T06:46:00;7.03;;;5.28;;
12816;SDS011;6473;51.552;6.716;2023-07-31T06:48:31;7.97;;;5.63;;
12816;SDS011;6473;51.552;6.716;2023-07-31T06:51:00;7.53;;;5.40;;
12816;SDS011;6473;51.552;6.716;2023-07-31T06:53:26;6.28;;;5.18;;
12816;SDS011;6473;51.552;6.716;2023-07-31T06:55:54;6.80;;;4.82;;
12816;SDS011;6473;51.552;6.716;2023-07-31T06:58:22;8.55;;;5.18;;
12816;SDS011;6473;51.552;6.716;2023-07-31T07:00:49;6.18;;;5.50;;
12816;SDS011;6473;51.552;6.716;2023-07-31T07:03:17;8.23;;;5.25;;
12816;SDS011;6473;51.552;6.716;2023-07-31T07:05:45;7.60;;;5.50;;
12816;SDS011;6473;51.552;6.716;2023-07-31T07:08:13;8.07;;;5.80;;
12816;SDS011;6473;51.552;6.716;2023-07-31T07:10:42;5.78;;;4.78;;
12816;SDS011;6473;51.552;6.716;2023-07-31T07:13:08;9.25;;;4.95;;
12816;SDS011;6473;51.552;6.716;2023-07-31T07:15:37;8.38;;;5.10;;
12816;SDS011;6473;51.552;6.716;2023-07-31T07:18:05;6.70;;;5.03;;
12816;SDS011;6473;51.552;6.716;2023-07-31T07:20:32;9.25;;;5.10;;
12816;SDS011;6473;51.552;6.716;2023-07-31T07:22:59;6.90;;;5.18;;
12816;SDS011;6473;51.552;6.716;2023-07-31T07:25:28;6.78;;;4.88;;
12816;SDS011;6473;51.552;6.716;2023-07-31T07:27:55;9.65;;;5.35;;
12816;SDS011;6473;51.552;6.716;2023-07-31T07:30:23;7.55;;;5.20;;
12816;SDS011;6473;51.552;6.716;2023-07-31T07:32:51;7.80;;;5.10;;
12816;SDS011;6473;51.552;6.716;2023-07-31T07:35:18;7.28;;;5.03;;
12816;SDS011;6473;51.552;6.716;2023-07-31T07:37:45;7.18;;;5.20;;
12816;SDS011;6473;51.552;6.716;2023-07-31T07:40:15;8.50;;;4.78;;
12816;SDS011;6473;51.552;6.716;2023-07-31T07:42:44;8.05;;;5.30;;
12816;SDS011;6473;51.552;6.716;2023-07-31T07:45:11;6.45;;;5.25;;
12816;SDS011;6473;51.552;6.716;2023-07-31T07:47:40;5.30;;;4.80;;
12816;SDS011;6473;51.552;6.716;2023-07-31T07:50:08;7.90;;;5.10;;
12816;SDS011;6473;51.552;6.716;2023-07-31T07:52:35;6.72;;;4.97;;
12816;SDS011;6473;51.552;6.716;2023-07-31T07:55:03;6.68;;;4.50;;
12816;SDS011;6473;51.552;6.716;2023-07-31T07:57:30;4.07;;;3.55;;
12816;SDS011;6473;51.552;6.716;2023-07-31T07:59:59;8.90;;;4.40;;
12816;SDS011;6473;51.552;6.716;2023-07-31T08:02:26;4.20;;;3.80;;
12816;SDS011;6473;51.552;6.716;2023-07-31T08:04:53;5.07;;;4.25;;
12816;SDS011;6473;51.552;6.716;2023-07-31T08:07:20;5.53;;;4.10;;
12816;SDS011;6473;51.552;6.716;2023-07-31T08:09:47;4.97;;;3.35;;
12816;SDS011;6473;51.552;6.716;2023-07-31T08:12:14;3.90;;;3.50;;
12816;SDS011;6473;51.552;6.716;2023-07-31T08:14:42;5.60;;;4.05;;
12816;SDS011;6473;51.552;6.716;2023-07-31T08:17:10;4.28;;;3.65;;
12816;SDS011;6473;51.552;6.716;2023-07-31T08:19:37;6.10;;;3.60;;
12816;SDS011;6473;51.552;6.716;2023-07-31T08:22:04;5.85;;;3.92;;
12816;SDS011;6473;51.552;6.716;2023-07-31T08:24:31;4.05;;;3.50;;
12816;SDS011;6473;51.552;6.716;2023-07-31T08:26:58;4.50;;;3.45;;
12816;SDS011;6473;51.552;6.716;2023-07-31T08:29:26;5.28;;;3.55;;
12816;SDS011;6473;51.552;6.716;2023-07-31T08:31:53;5.40;;;3.65;;
12816;SDS011;6473;51.552;6.716;2023-07-31T08:34:22;4.95;;;3.70;;
12816;SDS011;6473;51.552;6.716;2023-07-31T08:36:50;4.55;;;3.67;;
12816;SDS011;6473;51.552;6.716;2023-07-31T08:39:17;5.65;;;4.13;;
12816;SDS011;6473;51.552;6.716;2023-07-31T08:41:45;4.32;;;3.63;;
12816;SDS011;6473;51.552;6.716;2023-07-31T08:44:12;4.47;;;3.60;;
12816;SDS011;6473;51.552;6.716;2023-07-31T08:46:41;3.55;;;3.25;;
12816;SDS011;6473;51.552;6.716;2023-07-31T08:49:09;4.65;;;3.35;;
12816;SDS011;6473;51.552;6.716;2023-07-31T08:51:39;4.18;;;3.38;;
12816;SDS011;6473;51.552;6.716;2023-07-31T08:54:08;4.93;;;3.40;;
12816;SDS011;6473;51.552;6.716;2023-07-31T08:56:35;6.15;;;3.83;;
12816;SDS011;6473;51.552;6.716;2023-07-31T08:59:03;5.53;;;3.40;;
12816;SDS011;6473;51.552;6.716;2023-07-31T09:01:30;4.05;;;3.25;;
12816;SDS011;6473;51.552;6.716;2023-07-31T09:04:02;4.13;;;3.60;;
12816;SDS011;6473;51.552;6.716;2023-07-31T09:06:31;4.10;;;3.72;;
12816;SDS011;6473;51.552;6.716;2023-07-31T09:09:01;6.15;;;3.65;;
12816;SDS011;6473;51.552;6.716;2023-07-31T09:11:28;4.32;;;3.28;;
12816;SDS011;6473;51.552;6.716;2023-07-31T09:13:56;5.10;;;3.92;;
12816;SDS011;6473;51.552;6.716;2023-07-31T09:16:27;5.90;;;3.70;;
12816;SDS011;6473;51.552;6.716;2023-07-31T09:18:56;4.90;;;4.38;;
12816;SDS011;6473;51.552;6.716;2023-07-31T09:21:24;6.10;;;3.92;;
12816;SDS011;6473;51.552;6.716;2023-07-31T09:23:53;5.38;;;3.60;;
12816;SDS011;6473;51.552;6.716;2023-07-31T09:26:31;5.00;;;4.13;;
12816;SDS011;6473;51.552;6.716;2023-07-31T09:28:59;6.22;;;4.05;;
12816;SDS011;6473;51.552;6.716;2023-07-31T09:31:33;5.63;;;4.20;;
12816;SDS011;6473;51.552;6.716;2023-07-31T09:34:06;4.30;;;3.85;;
12816;SDS011;6473;51.552;6.716;2023-07-31T09:36:39;6.15;;;4.00;;
12816;SDS011;6473;51.552;6.716;2023-07-31T09:39:07;5.07;;;4.10;;
12816;SDS011;6473;51.552;6.716;2023-07-31T09:41:37;4.40;;;4.00;;
12816;SDS011;6473;51.552;6.716;2023-07-31T09:44:04;5.55;;;4.20;;
12816;SDS011;6473;51.552;6.716;2023-07-31T09:46:32;4.18;;;3.63;;
12816;SDS011;6473;51.552;6.716;2023-07-31T09:49:08;3.70;;;3.40;;
12816;SDS011;6473;51.552;6.716;2023-07-31T09:51:35;5.57;;;4.07;;
12816;SDS011;6473;51.552;6.716;2023-07-31T09:54:08;5.25;;;4.20;;
12816;SDS011;6473;51.552;6.716;2023-07-31T09:56:39;4.63;;;3.60;;
12816;SDS011;6473;51.552;6.716;2023-07-31T09:59:10;4.85;;;3.42;;
12816;SDS011;6473;51.552;6.716;2023-07-31T10:01:38;4.38;;;3.53;;
12816;SDS011;6473;51.552;6.716;2023-07-31T10:04:07;5.13;;;3.70;;
12816;SDS011;6473;51.552;6.716;2023-07-31T10:06:35;5.78;;;3.50;;
12816;SDS011;6473;51.552;6.716;2023-07-31T10:09:04;3.13;;;2.80;;
12816;SDS011;6473;51.552;6.716;2023-07-31T10:11:33;3.30;;;3.00;;
12816;SDS011;6473;51.552;6.716;2023-07-31T10:14:03;3.90;;;3.38;;
12816;SDS011;6473;51.552;6.716;2023-07-31T10:16:31;5.32;;;3.67;;
12816;SDS011;6473;51.552;6.716;2023-07-31T10:18:59;3.25;;;2.95;;
12816;SDS011;6473;51.552;6.716;2023-07-31T10:21:26;4.82;;;3.80;;
12816;SDS011;6473;51.552;6.716;2023-07-31T10:23:54;5.75;;;4.30;;
12816;SDS011;6473;51.552;6.716;2023-07-31T10:26:22;4.00;;;3.25;;
12816;SDS011;6473;51.552;6.716;2023-07-31T10:28:51;4.15;;;3.47;;
12816;SDS011;6473;51.552;6.716;2023-07-31T10:31:20;4.55;;;3.55;;
12816;SDS011;6473;51.552;6.716;2023-07-31T10:33:48;4.72;;;4.07;;
12816;SDS011;6473;51.552;6.716;2023-07-31T10:36:17;4.82;;;4.22;;
12816;SDS011;6473;51.552;6.716;2023-07-31T10:38:44;4.22;;;3.72;;
12816;SDS011;6473;51.552;6.716;2023-07-31T10:41:11;7.07;;;3.97;;
12816;SDS011;6473;51.552;6.716;2023-07-31T10:43:38;4.43;;;4.00;;
12816;SDS011;6473;51.552;6.716;2023-07-31T10:46:08;4.20;;;3.60;;
12816;SDS011;6473;51.552;6.716;2023-07-31T10:48:39;5.68;;;3.53;;
12816;SDS011;6473;51.552;6.716;2023-07-31T10:51:07;4.38;;;3.17;;
12816;SDS011;6473;51.552;6.716;2023-07-31T10:53:36;4.47;;;3.60;;
12816;SDS011;6473;51.552;6.716;2023-07-31T10:56:03;4.53;;;3.42;;
12816;SDS011;6473;51.552;6.716;2023-07-31T10:58:31;4.28;;;3.47;;
12816;SDS011;6473;51.552;6.716;2023-07-31T11:01:00;3.78;;;3.22;;
12816;SDS011;6473;51.552;6.716;2023-07-31T11:03:41;5.75;;;3.45;;
12816;SDS011;6473;51.552;6.716;2023-07-31T11:06:09;3.75;;;3.40;;
12816;SDS011;6473;51.552;6.716;2023-07-31T11:08:41;3.97;;;3.30;;
12816;SDS011;6473;51.552;6.716;2023-07-31T11:11:10;6.22;;;3.33;;
12816;SDS011;6473;51.552;6.716;2023-07-31T11:13:41;5.32;;;2.90;;
12816;SDS011;6473;51.552;6.716;2023-07-31T11:16:09;5.13;;;3.15;;
12816;SDS011;6473;51.552;6.716;2023-07-31T11:18:38;2.95;;;2.72;;
12816;SDS011;6473;51.552;6.716;2023-07-31T11:21:07;3.28;;;2.97;;
12816;SDS011;6473;51.552;6.716;2023-07-31T11:23:36;3.10;;;2.80;;
12816;SDS011;6473;51.552;6.716;2023-07-31T11:26:04;5.47;;;3.40;;
12816;SDS011;6473;51.552;6.716;2023-07-31T11:28:32;4.90;;;2.92;;
12816;SDS011;6473;51.552;6.716;2023-07-31T11:31:00;3.53;;;3.10;;
12816;SDS011;6473;51.552;6.716;2023-07-31T11:33:28;3.95;;;2.70;;
12816;SDS011;6473;51.552;6.716;2023-07-31T11:35:55;3.72;;;2.88;;
12816;SDS011;6473;51.552;6.716;2023-07-31T11:38:23;2.95;;;2.75;;
12816;SDS011;6473;51.552;6.716;2023-07-31T11:40:51;3.58;;;2.90;;
12816;SDS011;6473;51.552;6.716;2023-07-31T11:43:19;3.28;;;2.97;;
12816;SDS011;6473;51.552;6.716;2023-07-31T11:45:47;3.03;;;2.55;;
12816;SDS011;6473;51.552;6.716;2023-07-31T11:48:18;3.53;;;2.92;;
12816;SDS011;6473;51.552;6.716;2023-07-31T11:50:47;4.13;;;2.97;;
12816;SDS011;6473;51.552;6.716;2023-07-31T11:53:15;3.75;;;3.03;;
12816;SDS011;6473;51.552;6.716;2023-07-31T11:55:46;3.60;;;3.30;;
12816;SDS011;6473;51.552;6.716;2023-07-31T11:58:13;3.45;;;2.75;;
12816;SDS011;6473;51.552;6.716;2023-07-31T12:00:42;3.42;;;3.13;;
12816;SDS011;6473;51.552;6.716;2023-07-31T12:03:11;3.10;;;2.80;;
12816;SDS011;6473;51.552;6.716;2023-07-31T12:05:38;3.80;;;2.60;;
12816;SDS011;6473;51.552;6.716;2023-07-31T12:08:08;2.88;;;2.40;;
12816;SDS011;6473;51.552;6.716;2023-07-31T12:10:35;4.93;;;2.95;;
12816;SDS011;6473;51.552;6.716;2023-07-31T12:13:04;4.65;;;2.90;;
12816;SDS011;6473;51.552;6.716;2023-07-31T12:15:33;4.03;;;2.90;;
12816;SDS011;6473;51.552;6.716;2023-07-31T12:18:03;3.20;;;2.80;;
12816;SDS011;6473;51.552;6.716;2023-07-31T12:20:31;3.53;;;2.80;;
12816;SDS011;6473;51.552;6.716;2023-07-31T12:22:59;3.15;;;2.95;;
12816;SDS011;6473;51.552;6.716;2023-07-31T12:25:29;3.45;;;3.15;;
12816;SDS011;6473;51.552;6.716;2023-07-31T12:27:56;3.40;;;3.10;;
12816;SDS011;6473;51.552;6.716;2023-07-31T12:30:28;4.78;;;2.92;;
12816;SDS011;6473;51.552;6.716;2023-07-31T12:32:55;4.05;;;2.97;;
12816;SDS011;6473;51.552;6.716;2023-07-31T12:35:22;4.25;;;3.00;;
12816;SDS011;6473;51.552;6.716;2023-07-31T12:37:49;3.20;;;2.80;;
12816;SDS011;6473;51.552;6.716;2023-07-31T12:40:16;3.22;;;2.92;;
12816;SDS011;6473;51.552;6.716;2023-07-31T12:42:44;5.78;;;2.78;;
12816;SDS011;6473;51.552;6.716;2023-07-31T12:45:11;3.05;;;2.85;;
12816;SDS011;6473;51.552;6.716;2023-07-31T12:47:39;3.22;;;2.92;;
12816;SDS011;6473;51.552;6.716;2023-07-31T12:50:07;3.03;;;2.60;;
12816;SDS011;6473;51.552;6.716;2023-07-31T12:52:34;3.25;;;2.95;;
12816;SDS011;6473;51.552;6.716;2023-07-31T12:55:01;3.38;;;3.08;;
12816;SDS011;6473;51.552;6.716;2023-07-31T12:57:28;3.40;;;3.10;;
12816;SDS011;6473;51.552;6.716;2023-07-31T12:59:55;3.45;;;3.00;;
12816;SDS011;6473;51.552;6.716;2023-07-31T13:02:22;4.13;;;3.20;;
12816;SDS011;6473;51.552;6.716;2023-07-31T13:04:50;4.32;;;3.00;;
12816;SDS011;6473;51.552;6.716;2023-07-31T13:07:18;3.67;;;3.20;;
12816;SDS011;6473;51.552;6.716;2023-07-31T13:09:45;4.22;;;3.40;;
12816;SDS011;6473;51.552;6.716;2023-07-31T13:12:12;3.92;;;3.42;;
12816;SDS011;6473;51.552;6.716;2023-07-31T13:14:39;3.58;;;3.28;;
12816;SDS011;6473;51.552;6.716;2023-07-31T13:17:06;3.95;;;3.45;;
12816;SDS011;6473;51.552;6.716;2023-07-31T13:19:32;3.83;;;3.30;;
12816;SDS011;6473;51.552;6.716;2023-07-31T13:22:01;3.67;;;3.38;;
12816;SDS011;6473;51.552;6.716;2023-07-31T13:24:27;3.58;;;3.28;;
12816;SDS011;6473;51.552;6.716;2023-07-31T13:26:55;4.90;;;3.45;;
12816;SDS011;6473;51.552;6.716;2023-07-31T13:29:22;4.05;;;3.60;;
12816;SDS011;6473;51.552;6.716;2023-07-31T13:31:50;3.70;;;3.40;;
12816;SDS011;6473;51.552;6.716;2023-07-31T13:34:18;3.90;;;3.50;;
12816;SDS011;6473;51.552;6.716;2023-07-31T13:36:45;4.57;;;3.45;;
12816;SDS011;6473;51.552;6.716;2023-07-31T13:39:13;3.42;;;3.13;;
12816;SDS011;6473;51.552;6.716;2023-07-31T13:41:40;4.38;;;3.42;;
12816;SDS011;6473;51.552;6.716;2023-07-31T13:44:07;4.60;;;3.53;;
12816;SDS011;6473;51.552;6.716;2023-07-31T13:46:34;5.18;;;3.38;;
12816;SDS011;6473;51.552;6.716;2023-07-31T13:49:01;3.67;;;3.28;;
12816;SDS011;6473;51.552;6.716;2023-07-31T13:51:27;3.83;;;2.97;;
12816;SDS011;6473;51.552;6.716;2023-07-31T13:53:54;4.75;;;3.40;;
12816;SDS011;6473;51.552;6.716;2023-07-31T13:56:22;4.25;;;3.83;;
12816;SDS011;6473;51.552;6.716;2023-07-31T13:58:50;4.85;;;3.17;;
12816;SDS011;6473;51.552;6.716;2023-07-31T14:01:16;3.72;;;3.25;;
12816;SDS011;6473;51.552;6.716;2023-07-31T14:03:45;3.55;;;3.22;;
12816;SDS011;6473;51.552;6.716;2023-07-31T14:06:12;3.95;;;3.35;;
12816;SDS011;6473;51.552;6.716;2023-07-31T14:08:39;5.65;;;3.47;;
12816;SDS011;6473;51.552;6.716;2023-07-31T14:11:05;4.22;;;3.45;;
12816;SDS011;6473;51.552;6.716;2023-07-31T14:13:34;4.53;;;3.38;;
12816;SDS011;6473;51.552;6.716;2023-07-31T14:16:01;4.68;;;3.25;;
12816;SDS011;6473;51.552;6.716;2023-07-31T14:18:27;3.70;;;3.08;;
12816;SDS011;6473;51.552;6.716;2023-07-31T14:20:54;4.70;;;3.53;;
12816;SDS011;6473;51.552;6.716;2023-07-31T14:23:21;2.88;;;2.67;;
12816;SDS011;6473;51.552;6.716;2023-07-31T14:25:48;3.65;;;3.17;;
12816;SDS011;6473;51.552;6.716;2023-07-31T14:28:15;3.47;;;3.17;;
12816;SDS011;6473;51.552;6.716;2023-07-31T14:30:43;5.05;;;3.30;;
12816;SDS011;6473;51.552;6.716;2023-07-31T14:33:09;4.20;;;3.22;;
12816;SDS011;6473;51.552;6.716;2023-07-31T14:35:36;4.60;;;3.38;;
12816;SDS011;6473;51.552;6.716;2023-07-31T14:38:03;4.80;;;3.63;;
12816;SDS011;6473;51.552;6.716;2023-07-31T14:40:30;6.47;;;3.60;;
12816;SDS011;6473;51.552;6.716;2023-07-31T14:42:57;6.10;;;3.50;;
12816;SDS011;6473;51.552;6.716;2023-07-31T14:45:24;5.28;;;3.65;;
12816;SDS011;6473;51.552;6.716;2023-07-31T14:47:52;4.07;;;3.58;;
12816;SDS011;6473;51.552;6.716;2023-07-31T14:50:19;5.78;;;4.18;;
12816;SDS011;6473;51.552;6.716;2023-07-31T14:52:46;6.88;;;4.00;;
12816;SDS011;6473;51.552;6.716;2023-07-31T14:55:13;4.32;;;3.92;;
12816;SDS011;6473;51.552;6.716;2023-07-31T14:57:40;6.53;;;4.30;;
12816;SDS011;6473;51.552;6.716;2023-07-31T15:00:07;4.90;;;4.10;;
12816;SDS011;6473;51.552;6.716;2023-07-31T15:02:35;6.32;;;4.30;;